地図

経路データ

SID SEASON NUMBER BASIN SUBBASIN NAME ISO_TIME NATURE LAT LON WMO_WIND WMO_PRES WMO_AGENCY TRACK_TYPE DIST2LAND LANDFALL IFLAG USA_AGENCY USA_ATCF_ID USA_LAT USA_LON USA_RECORD USA_STATUS USA_WIND USA_PRES USA_SSHS USA_R34_NE USA_R34_SE USA_R34_SW USA_R34_NW USA_R50_NE USA_R50_SE USA_R50_SW USA_R50_NW USA_R64_NE USA_R64_SE USA_R64_SW USA_R64_NW USA_POCI USA_ROCI USA_RMW USA_EYE TOKYO_LAT TOKYO_LON TOKYO_GRADE TOKYO_WIND TOKYO_PRES TOKYO_R50_DIR TOKYO_R50_LONG TOKYO_R50_SHORT TOKYO_R30_DIR TOKYO_R30_LONG TOKYO_R30_SHORT TOKYO_LAND CMA_LAT CMA_LON CMA_CAT CMA_WIND CMA_PRES HKO_LAT HKO_LON HKO_CAT HKO_WIND HKO_PRES NEWDELHI_LAT NEWDELHI_LON NEWDELHI_GRADE NEWDELHI_WIND NEWDELHI_PRES NEWDELHI_CI NEWDELHI_DP NEWDELHI_POCI REUNION_LAT REUNION_LON REUNION_TYPE REUNION_WIND REUNION_PRES REUNION_TNUM REUNION_CI REUNION_RMW REUNION_R34_NE REUNION_R34_SE REUNION_R34_SW REUNION_R34_NW REUNION_R50_NE REUNION_R50_SE REUNION_R50_SW REUNION_R50_NW REUNION_R64_NE REUNION_R64_SE REUNION_R64_SW REUNION_R64_NW BOM_LAT BOM_LON BOM_TYPE BOM_WIND BOM_PRES BOM_TNUM BOM_CI BOM_RMW BOM_R34_NE BOM_R34_SE BOM_R34_SW BOM_R34_NW BOM_R50_NE BOM_R50_SE BOM_R50_SW BOM_R50_NW BOM_R64_NE BOM_R64_SE BOM_R64_SW BOM_R64_NW BOM_ROCI BOM_POCI BOM_EYE BOM_POS_METHOD BOM_PRES_METHOD NADI_LAT NADI_LON NADI_CAT NADI_WIND NADI_PRES WELLINGTON_LAT WELLINGTON_LON WELLINGTON_WIND WELLINGTON_PRES DS824_LAT DS824_LON DS824_STAGE DS824_WIND DS824_PRES TD9636_LAT TD9636_LON TD9636_STAGE TD9636_WIND TD9636_PRES TD9635_LAT TD9635_LON TD9635_WIND TD9635_PRES TD9635_ROCI NEUMANN_LAT NEUMANN_LON NEUMANN_CLASS NEUMANN_WIND NEUMANN_PRES MLC_LAT MLC_LON MLC_CLASS MLC_WIND MLC_PRES USA_GUST BOM_GUST BOM_GUST_PER REUNION_GUST REUNION_GUST_PER USA_SEAHGT USA_SEARAD_NE USA_SEARAD_SE USA_SEARAD_SW USA_SEARAD_NW STORM_SPEED STORM_DIR
1871001S16421 1871 4 SI MM NOT_NAMED 1871-01-01 06:00:00 NR -16.4000 60.8000 spur-split 527 447 __________O___ -1 -16.4000 60.8000 7 16 242
1871001S16421 1871 4 SI MM NOT_NAMED 1871-01-01 09:00:00 NR -16.7901 60.0449 spur-split 441 365 __________P___ -1 -16.7901 60.0449 7 16 242
1871001S16421 1871 4 SI MM NOT_NAMED 1871-01-01 12:00:00 NR -17.1729 59.3104 spur-split 365 309 __________P___ -1 -17.1729 59.3104 7 16 241
1871001S16421 1871 4 SI MM NOT_NAMED 1871-01-01 15:00:00 NR -17.5442 58.6206 spur-split 305 248 __________P___ -1 -17.5442 58.6206 7 14 240
1871001S16421 1871 4 SI MM NOT_NAMED 1871-01-01 18:00:00 NR -17.9000 58.0000 spur-split 248 212 __________O___ -1 -17.9000 58.0000 7 13 238
1871001S16421 1871 4 SI MM NOT_NAMED 1871-01-01 21:00:00 NR -18.2383 57.4666 spur-split 212 181 __________P___ -1 -18.2383 57.4666 7 12 235
1871001S16421 1871 4 SI MM NOT_NAMED 1871-01-02 00:00:00 NR -18.5638 57.0140 spur-split 175 162 __________P___ -1 -18.5638 57.0140 7 10 231
1871001S16421 1871 4 SI MM NOT_NAMED 1871-01-02 03:00:00 NR -18.8824 56.6294 spur-split 164 155 __________P___ -1 -18.8824 56.6294 7 9 227
1871001S16421 1871 4 SI MM NOT_NAMED 1871-01-02 06:00:00 NR -19.2000 56.3000 spur-split 161 161 __________O___ -1 -19.2000 56.3000 7 9 224
1871001S16421 1871 4 SI MM NOT_NAMED 1871-01-02 09:00:00 NR -19.5164 55.9869 spur-split 170 134 __________P___ -1 -19.5164 55.9869 7 8 221
1871001S16421 1871 4 SI MM NOT_NAMED 1871-01-02 12:00:00 NR -19.8345 55.7242 spur-split 134 100 __________P___ -1 -19.8345 55.7242 7 8 215
1871001S16421 1871 4 SI MM NOT_NAMED 1871-01-02 15:00:00 NR -20.1603 55.4995 spur-split 89 55 __________P___ -1 -20.1603 55.4995 7 8 211
1871001S16421 1871 4 SI MM NOT_NAMED 1871-01-02 18:00:00 NR -20.5000 55.3000 spur-split 55 30 __________O___ -1 -20.5000 55.3000 7 8 209
1871001S16421 1871 4 SI MM NOT_NAMED 1871-01-02 21:00:00 NR -20.8606 55.0791 spur-split 23 20 __________P___ -1 -20.8606 55.0791 7 8 208
1871001S16421 1871 4 SI MM NOT_NAMED 1871-01-03 00:00:00 NR -21.2350 54.8827 spur-split 33 33 __________P___ -1 -21.2350 54.8827 7 8 204
1871001S16421 1871 4 SI MM NOT_NAMED 1871-01-03 03:00:00 NR -21.6169 54.7199 spur-split 70 70 __________P___ -1 -21.6169 54.7199 7 8 199
1871001S16421 1871 4 SI MM NOT_NAMED 1871-01-03 06:00:00 NR -22.0000 54.6000 spur-split 106 106 __________O___ -1 -22.0000 54.6000 7 8 193
1871001S16421 1871 4 SI MM NOT_NAMED 1871-01-03 09:00:00 NR -22.3789 54.5233 spur-split 148 148 __________P___ -1 -22.3789 54.5233 7 8 188
1871001S16421 1871 4 SI MM NOT_NAMED 1871-01-03 12:00:00 NR -22.7574 54.4895 spur-split 186 186 __________P___ -1 -22.7574 54.4895 7 8 182
1871001S16421 1871 4 SI MM NOT_NAMED 1871-01-03 15:00:00 NR -23.1321 54.4860 spur-split 217 217 __________P___ -1 -23.1321 54.4860 7 7 0
1871001S16421 1871 4 SI MM NOT_NAMED 1871-01-03 18:00:00 NR -23.5000 54.5000 spur-split 259 259 __________O___ -1 -23.5000 54.5000 7 7 0
1871001S16421 1871 4 SI MM NOT_NAMED 1871-01-03 21:00:00 NR -23.8693 54.5025 spur-split 301 301 __________P___ -1 -23.8693 54.5025 7 7 0
1871001S16421 1871 4 SI MM NOT_NAMED 1871-01-04 00:00:00 NR -24.2300 54.5200 spur-split 332 332 __________P___ -1 -24.2300 54.5200 7 7 176
1871001S16421 1871 4 SI MM NOT_NAMED 1871-01-04 03:00:00 NR -24.5756 54.5525 spur-split 372 372 __________P___ -1 -24.5756 54.5525 7 7 174
1871001S16421 1871 4 SI MM NOT_NAMED 1871-01-04 06:00:00 NR -24.9000 54.6000 spur-split 404 404 __________O___ -1 -24.9000 54.6000 7 6 171
1871001S16421 1871 4 SI MM NOT_NAMED 1871-01-04 09:00:00 NR -25.2006 54.6606 spur-split 434 434 __________P___ -1 -25.2006 54.6606 7 6 168
1871001S16421 1871 4 SI MM NOT_NAMED 1871-01-04 12:00:00 NR -25.4800 54.7349 spur-split 467 465 __________P___ -1 -25.4800 54.7349 7 6 165
1871001S16421 1871 4 SI MM NOT_NAMED 1871-01-04 15:00:00 NR -25.7444 54.8169 spur-split 487 487 __________P___ -1 -25.7444 54.8169 7 5 164
1871001S16421 1871 4 SI MM NOT_NAMED 1871-01-04 18:00:00 NR -26.0000 54.9000 spur-split 519 519 __________O___ -1 -26.0000 54.9000 7 5 166
1871001S16421 1871 4 SI MM NOT_NAMED 1871-01-04 21:00:00 NR -26.2408 54.9553 spur-split 539 539 __________P___ -1 -26.2408 54.9553 7 5 167
1871001S16421 1871 4 SI MM NOT_NAMED 1871-01-05 00:00:00 NR -26.4773 55.0134 spur-split 573 573 __________P___ -1 -26.4773 55.0134 7 5 166
1871001S16421 1871 4 SI MM NOT_NAMED 1871-01-05 03:00:00 NR -26.7251 55.0898 spur-split 594 594 __________P___ -1 -26.7251 55.0898 7 6 162
1871001S16421 1871 4 SI MM NOT_NAMED 1871-01-05 06:00:00 NR -27.0000 55.2000 spur-split 627 627 __________O___ -1 -27.0000 55.2000 7 7 158
1871001S16421 1871 4 SI MM NOT_NAMED 1871-01-05 09:00:00 NR -27.3418 55.3755 spur-split 659 659 __________P___ -1 -27.3418 55.3755 7 8 154
1871001S16421 1871 4 SI MM NOT_NAMED 1871-01-05 12:00:00 NR -27.7078 55.5839 spur-split 703 703 __________P___ -1 -27.7078 55.5839 7 8 153
1871001S16421 1871 4 SI MM NOT_NAMED 1871-01-05 15:00:00 NR -28.0699 55.8005 spur-split 748 748 __________P___ -1 -28.0699 55.8005 7 8 152
1871001S16421 1871 4 SI MM NOT_NAMED 1871-01-05 18:00:00 NR -28.4000 56.0000 spur-split 783 783 __________O___ -1 -28.4000 56.0000 7 7 153
1871001S16421 1871 4 SI MM NOT_NAMED 1871-01-05 21:00:00 NR -28.6648 56.1472 spur-split 817 817 __________P___ -1 -28.6648 56.1472 7 6 154
1871001S16421 1871 4 SI MM NOT_NAMED 1871-01-06 00:00:00 NR -28.8948 56.2733 spur-split 840 840 __________P___ -1 -28.8948 56.2733 7 5 155
1871001S16421 1871 4 SI MM NOT_NAMED 1871-01-06 03:00:00 NR -29.1024 56.3877 spur-split 864 864 __________P___ -1 -29.1024 56.3877 7 5 154
1871001S16421 1871 4 SI MM NOT_NAMED 1871-01-06 06:00:00 NR -29.3000 56.5000 spur-split 887 887 __________O___ -1 -29.3000 56.5000 7 5 153
1871001S16421 1871 4 SI MM NOT_NAMED 1871-01-06 09:00:00 NR -29.5153 56.6251 spur-split 910 910 __________P___ -1 -29.5153 56.6251 7 5 153
1871001S16421 1871 4 SI MM NOT_NAMED 1871-01-06 12:00:00 NR -29.7224 56.7501 spur-split 934 934 __________P___ -1 -29.7224 56.7501 7 5 152
1871001S16421 1871 4 SI MM NOT_NAMED 1871-01-06 15:00:00 NR -29.9184 56.8751 spur-split 958 958 __________P___ -1 -29.9184 56.8751 7 4 150
1871001S16421 1871 4 SI MM NOT_NAMED 1871-01-06 18:00:00 NR -30.1000 57.0000 spur-split 981 981 __________O___ -1 -30.1000 57.0000 7 4 148
1871001S16421 1871 4 SI MM NOT_NAMED 1871-01-06 21:00:00 NR -30.2654 57.1249 spur-split 1005 1005 __________P___ -1 -30.2654 57.1249 7 4 146
1871001S16421 1871 4 SI MM NOT_NAMED 1871-01-07 00:00:00 NR -30.4176 57.2498 spur-split 1017 1017 __________P___ -1 -30.4176 57.2498 7 4 144
1871001S16421 1871 4 SI MM NOT_NAMED 1871-01-07 03:00:00 NR -30.5610 57.3748 spur-split 1043 1043 __________P___ -1 -30.5610 57.3748 7 4 142
1871001S16421 1871 4 SI MM NOT_NAMED 1871-01-07 06:00:00 NR -30.7000 57.5000 spur-split 1055 __________O___ -1 -30.7000 57.5000 7 4 144

IBTrACS Databaseについて

本データベースは、米国NOAAが公開する1842年以降の世界の熱帯低気圧のベストトラックデータアーカイブInternational Best Track Archive for Climate Stewardship (IBTrACS)を、ウェブで閲覧しやすい形式に変換したものです。

最終更新日:2021-10-21